Terminal Aerodrome Forecast
Issued by NWS

Home | Current Version | Previous Version | Text Only | Print | Product List | Glossary On
Versions: 1 2 3 4 5 6 7 8 9 10 11 12
518
FTUS44 KSJT 201720
TAFBBD
TAF
KBBD 201720Z 2018/2118 17010KT P6SM FEW040
     FM210200 16007KT P6SM SKC
      AMD NOT SKED=

USA.gov is the U.S. government's official web portal to all federal, state and local government web resources and services.